createdAt,value
2019-03-18T00:00:48.317Z,71.80
2019-03-18T00:03:18.064Z,72.97
2019-03-18T00:05:47.800Z,72.37
2019-03-18T00:08:17.585Z,73.37
2019-03-18T00:10:47.367Z,73.93
2019-03-18T00:13:17.156Z,73.80
2019-03-18T00:15:46.966Z,72.83
2019-03-18T00:18:16.644Z,73.40
2019-03-18T00:20:46.441Z,73.57
2019-03-18T00:23:16.257Z,74.47
2019-03-18T00:25:46.026Z,74.10
2019-03-18T00:28:15.790Z,75.63
2019-03-18T00:30:45.584Z,75.10
2019-03-18T00:33:15.310Z,75.03
2019-03-18T00:35:45.066Z,75.10
2019-03-18T00:38:14.946Z,75.93
2019-03-18T00:40:44.656Z,75.30
2019-03-18T00:43:14.531Z,75.50
2019-03-18T00:45:44.266Z,74.60
2019-03-18T00:48:13.969Z,75.53
2019-03-18T00:50:43.681Z,74.97
2019-03-18T00:53:13.367Z,77.37
2019-03-18T00:55:43.099Z,76.63
2019-03-18T00:58:13.177Z,77.37
2019-03-18T01:00:42.943Z,79.10
2019-03-18T01:03:12.644Z,77.47
2019-03-18T01:05:42.524Z,78.67
2019-03-18T01:08:12.441Z,81.10
2019-03-18T01:10:42.338Z,75.07
2019-03-18T01:13:12.138Z,75.17
2019-03-18T01:15:41.913Z,72.73
2019-03-18T01:18:11.731Z,73.33
2019-03-18T01:20:41.418Z,80.40
2019-03-18T01:23:11.172Z,88.10
2019-03-18T01:25:40.899Z,83.87
2019-03-18T01:28:10.610Z,84.17
2019-03-18T01:30:40.586Z,84.53
2019-03-18T01:33:10.247Z,83.77
2019-03-18T01:35:40.179Z,82.67
2019-03-18T01:38:09.856Z,83.37
2019-03-18T01:40:39.665Z,83.17
2019-03-18T01:43:09.378Z,82.80
2019-03-18T01:45:41.070Z,84.10
2019-03-18T01:48:10.560Z,81.30
2019-03-18T01:50:40.264Z,79.97
2019-03-18T01:53:09.945Z,80.53
2019-03-18T01:55:39.637Z,80.67
2019-03-18T01:58:09.387Z,79.07
2019-03-18T02:00:39.781Z,80.43
2019-03-18T02:03:09.464Z,79.43
2019-03-18T02:05:39.275Z,80.87
2019-03-18T02:08:08.962Z,79.73
2019-03-18T02:10:39.060Z,80.80
2019-03-18T02:13:08.872Z,79.70
2019-03-18T02:15:38.581Z,78.33
2019-03-18T02:18:08.282Z,79.50
2019-03-18T02:20:38.102Z,78.87
2019-03-18T02:23:07.805Z,80.33
2019-03-18T02:25:37.531Z,77.67
2019-03-18T02:28:07.210Z,79.33
2019-03-18T02:30:36.916Z,66.97
2019-03-18T02:33:06.607Z,69.10
2019-03-18T02:35:36.302Z,74.77
2019-03-18T02:38:05.997Z,78.63
2019-03-18T02:40:35.705Z,81.37
2019-03-18T02:43:05.402Z,82.10
2019-03-18T02:45:35.244Z,82.03
2019-03-18T02:48:04.937Z,81.67
2019-03-18T02:50:34.673Z,81.63
2019-03-18T02:53:05.322Z,84.53
2019-03-18T02:55:35.237Z,84.13
2019-03-18T02:58:04.960Z,86.43
2019-03-18T03:00:34.665Z,85.47
2019-03-18T03:03:04.635Z,83.47
2019-03-18T03:05:34.425Z,64.63
2019-03-18T03:08:05.060Z,63.03
2019-03-18T03:10:34.951Z,61.57
2019-03-18T03:13:04.996Z,62.47
2019-03-18T03:15:34.762Z,62.17
2019-03-18T03:18:04.602Z,64.83
2019-03-18T03:20:34.309Z,63.70
2019-03-18T03:23:04.012Z,68.23
2019-03-18T03:25:33.763Z,69.63
2019-03-18T03:28:03.467Z,77.53
2019-03-18T03:30:33.358Z,80.90
2019-03-18T03:33:03.125Z,82.13
2019-03-18T03:35:32.801Z,86.47
2019-03-18T03:38:02.528Z,85.70
2019-03-18T03:40:32.290Z,85.30
2019-03-18T03:43:02.038Z,84.13
2019-03-18T03:45:31.731Z,85.00
2019-03-18T03:48:01.493Z,86.00
2019-03-18T03:50:31.157Z,87.00
2019-03-18T03:53:00.984Z,87.03
2019-03-18T03:55:31.111Z,87.07
2019-03-18T03:58:00.912Z,85.67
2019-03-18T04:00:30.588Z,83.90
2019-03-18T04:03:00.301Z,86.90
2019-03-18T04:05:30.256Z,90.30
2019-03-18T04:08:00.011Z,90.13
2019-03-18T04:10:29.964Z,89.23
2019-03-18T04:12:59.725Z,89.13
2019-03-18T04:15:29.497Z,88.40
2019-03-18T04:17:59.242Z,87.53
2019-03-18T04:20:28.920Z,86.67
2019-03-18T04:22:58.639Z,88.20
2019-03-18T04:25:28.343Z,87.13
2019-03-18T04:27:58.050Z,85.03
2019-03-18T04:30:27.770Z,82.13
2019-03-18T04:32:57.418Z,80.80
2019-03-18T04:35:27.100Z,81.67
2019-03-18T04:37:56.788Z,85.63
2019-03-18T04:40:26.479Z,91.47
2019-03-18T04:42:56.200Z,86.77
2019-03-18T04:45:25.966Z,78.80
2019-03-18T04:47:55.664Z,72.93
2019-03-18T04:50:25.356Z,69.40
2019-03-18T04:52:55.083Z,67.10
2019-03-18T04:55:24.766Z,65.60
2019-03-18T04:57:54.460Z,65.63
2019-03-18T05:00:24.152Z,64.23
2019-03-18T05:02:54.023Z,66.33
2019-03-18T05:05:23.702Z,66.23
2019-03-18T05:07:53.448Z,67.37
2019-03-18T05:10:23.143Z,65.60
2019-03-18T05:12:52.850Z,63.87
2019-03-18T05:15:22.555Z,64.80
2019-03-18T05:17:52.277Z,62.17
2019-03-18T05:20:22.007Z,64.23
2019-03-18T05:22:51.716Z,62.87
2019-03-18T05:25:21.480Z,62.80
2019-03-18T05:27:51.181Z,62.77
2019-03-18T05:30:20.950Z,61.97
2019-03-18T05:32:50.668Z,62.17
2019-03-18T05:35:20.352Z,62.20
2019-03-18T05:37:50.037Z,62.87
2019-03-18T05:40:19.717Z,62.47
2019-03-18T05:42:49.398Z,61.47
2019-03-18T05:45:19.077Z,61.90
2019-03-18T05:47:48.797Z,61.97
2019-03-18T05:50:18.495Z,62.57
2019-03-18T05:52:48.286Z,62.30
2019-03-18T05:55:17.983Z,62.60
2019-03-18T05:57:47.724Z,62.10
2019-03-18T06:00:20.876Z,63.40
2019-03-18T06:02:50.556Z,62.70
2019-03-18T06:05:20.255Z,62.13
2019-03-18T06:07:49.949Z,62.70
2019-03-18T06:10:19.646Z,63.20
2019-03-18T06:12:49.426Z,64.40
2019-03-18T06:15:19.155Z,62.43
2019-03-18T06:17:52.591Z,61.27
2019-03-18T06:20:20.226Z,63.60
2019-03-18T06:22:49.914Z,62.20
2019-03-18T06:25:19.658Z,62.00
2019-03-18T06:27:49.340Z,62.90
2019-03-18T06:30:26.050Z,63.17
2019-03-18T06:32:55.991Z,64.57
2019-03-18T06:35:25.667Z,63.57
2019-03-18T06:37:55.359Z,65.40
2019-03-18T06:40:25.022Z,67.20
2019-03-18T06:42:54.723Z,66.03
2019-03-18T06:45:24.436Z,66.57
2019-03-18T06:48:04.384Z,67.83
2019-03-18T06:50:25.497Z,66.33
2019-03-18T06:52:55.200Z,69.50
2019-03-18T06:55:24.883Z,69.20
2019-03-18T06:57:54.591Z,68.70
2019-03-18T07:00:24.371Z,68.13
2019-03-18T07:02:54.148Z,67.40
2019-03-18T07:05:23.827Z,66.60
2019-03-18T07:07:53.615Z,68.00
2019-03-18T07:10:23.302Z,67.27
2019-03-18T07:12:53.168Z,68.53
2019-03-18T07:15:22.843Z,68.37
2019-03-18T07:17:53.516Z,67.90
2019-03-18T07:20:23.300Z,67.97
2019-03-18T07:22:53.020Z,67.43
2019-03-18T07:25:22.723Z,69.07
2019-03-18T07:27:52.425Z,69.17
2019-03-18T07:30:22.149Z,67.23
2019-03-18T07:32:51.842Z,67.47
2019-03-18T07:35:21.538Z,74.13
2019-03-18T07:37:51.270Z,76.00
2019-03-18T07:40:21.041Z,74.60
2019-03-18T07:42:50.748Z,78.27
2019-03-18T07:45:20.463Z,80.73
2019-03-18T07:47:50.272Z,81.20
2019-03-18T07:50:20.046Z,81.87
2019-03-18T07:52:50.917Z,82.53
2019-03-18T07:55:20.607Z,84.73
2019-03-18T07:57:50.295Z,86.23
2019-03-18T08:00:19.990Z,86.17
2019-03-18T08:02:49.689Z,85.43
2019-03-18T08:05:19.401Z,84.87
2019-03-18T08:07:49.088Z,86.97
2019-03-18T08:10:18.795Z,86.37
2019-03-18T08:12:48.491Z,82.63
2019-03-18T08:15:18.180Z,83.03
2019-03-18T08:17:47.882Z,82.57
2019-03-18T08:20:17.577Z,82.30
2019-03-18T08:22:47.377Z,81.80
2019-03-18T08:25:17.169Z,80.60
2019-03-18T08:27:46.867Z,82.53
2019-03-18T08:30:16.615Z,83.60
2019-03-18T08:32:46.389Z,82.77
2019-03-18T10:59:21.968Z,88.47
2019-03-18T11:01:51.659Z,85.20
2019-03-18T11:04:21.464Z,84.10
2019-03-18T11:06:52.180Z,84.07
2019-03-18T11:09:21.924Z,84.47
2019-03-18T11:11:51.645Z,83.87
2019-03-18T11:14:21.332Z,84.13
2019-03-18T11:16:52.517Z,84.23
2019-03-18T11:19:22.414Z,83.10
2019-03-18T11:21:52.215Z,82.17
2019-03-18T11:24:21.896Z,82.20
2019-03-18T11:26:51.679Z,82.67
2019-03-18T11:29:21.393Z,82.00
2019-03-18T11:31:51.078Z,82.23
2019-03-18T11:34:20.826Z,81.60
2019-03-18T11:36:50.563Z,81.33
2019-03-18T11:39:20.257Z,82.83
2019-03-18T11:41:49.956Z,82.40
2019-03-18T11:44:19.892Z,82.13
2019-03-18T11:46:49.664Z,80.47
2019-03-18T11:49:19.341Z,79.33
2019-03-18T11:51:50.333Z,80.70
2019-03-18T11:54:20.209Z,82.60
2019-03-18T11:56:50.378Z,82.10
2019-03-18T11:59:21.043Z,82.73
2019-03-18T12:01:50.914Z,82.30
2019-03-18T12:04:20.707Z,82.40
2019-03-18T12:06:50.469Z,82.40
2019-03-18T12:09:20.166Z,81.57
2019-03-18T12:11:49.879Z,81.33
2019-03-18T12:14:19.592Z,82.13
2019-03-18T12:16:49.407Z,81.97
2019-03-18T12:19:19.088Z,82.60
2019-03-18T12:21:48.791Z,82.23
2019-03-18T12:24:18.459Z,82.90
2019-03-18T12:26:49.275Z,82.63
2019-03-18T12:29:19.187Z,82.63
2019-03-18T12:31:48.892Z,82.80
2019-03-18T12:34:18.611Z,82.70
2019-03-18T12:36:48.309Z,83.73
2019-03-18T12:39:18.026Z,85.20
2019-03-18T12:41:47.755Z,84.83
2019-03-18T12:44:17.618Z,84.60
2019-03-18T12:46:48.298Z,84.40
2019-03-18T12:49:18.071Z,84.10
2019-03-18T12:51:47.813Z,84.53
2019-03-18T12:54:17.518Z,83.87
2019-03-18T12:56:47.335Z,82.77
2019-03-18T12:59:17.033Z,82.73
2019-03-18T13:01:47.722Z,82.57
2019-03-18T13:04:17.394Z,83.00
2019-03-18T13:06:47.093Z,81.77
2019-03-18T13:09:16.802Z,82.90
2019-03-18T13:11:46.539Z,83.60
2019-03-18T13:14:16.227Z,82.70
2019-03-18T13:16:45.994Z,81.43
2019-03-18T13:19:15.693Z,83.10
2019-03-18T13:21:45.411Z,81.80
2019-03-18T13:24:15.150Z,83.00
2019-03-18T13:26:44.854Z,82.43
2019-03-18T13:29:14.577Z,82.93
2019-03-18T13:31:44.254Z,82.40
2019-03-18T13:34:13.996Z,83.23
2019-03-18T13:36:43.685Z,86.90
2019-03-18T13:39:13.368Z,86.80
2019-03-18T13:41:43.050Z,82.70
2019-03-18T13:44:12.726Z,83.77
2019-03-18T13:46:42.455Z,83.10
2019-03-18T13:49:12.229Z,82.80
2019-03-18T13:51:41.986Z,82.93
2019-03-18T13:54:11.644Z,81.90
2019-03-18T13:56:41.382Z,81.73
2019-03-18T13:59:11.066Z,81.30
2019-03-18T14:01:40.740Z,80.67
2019-03-18T14:04:10.517Z,79.20
2019-03-18T14:06:40.259Z,78.83
2019-03-18T14:09:10.172Z,80.73
2019-03-18T14:11:39.952Z,79.47
2019-03-18T14:14:09.664Z,79.17
2019-03-18T14:16:39.389Z,79.27
2019-03-18T14:19:09.088Z,78.50
2019-03-18T14:21:38.840Z,78.77
2019-03-18T14:24:08.604Z,78.97
2019-03-18T14:26:39.347Z,79.17
2019-03-18T14:29:10.036Z,77.97
2019-03-18T14:31:43.399Z,78.93
2019-03-18T14:34:12.491Z,78.60
2019-03-18T14:36:42.191Z,78.10
2019-03-18T14:39:13.479Z,78.60
2019-03-18T14:41:43.648Z,78.30
2019-03-18T14:44:13.358Z,79.47
2019-03-18T14:46:43.175Z,79.20
2019-03-18T14:49:12.903Z,79.10
2019-03-18T14:51:46.031Z,79.63
2019-03-18T14:54:14.034Z,79.93
2019-03-18T14:56:43.743Z,78.33
2019-03-18T14:59:13.446Z,78.10
2019-03-18T15:01:43.178Z,78.20
2019-03-18T15:04:13.692Z,79.37
2019-03-18T15:06:43.725Z,79.73
2019-03-18T15:09:13.415Z,80.43
2019-03-18T15:11:43.233Z,78.83
2019-03-18T15:14:13.691Z,78.37
2019-03-18T15:16:44.237Z,78.07
2019-03-18T15:19:14.718Z,78.73
2019-03-18T15:21:57.614Z,77.27
2019-03-18T15:24:17.553Z,77.63
2019-03-18T15:26:48.169Z,77.20
2019-03-18T15:29:17.878Z,76.50
2019-03-18T15:31:47.614Z,76.47
2019-03-18T15:34:17.271Z,75.20
2019-03-18T15:36:47.144Z,73.67
2019-03-18T15:39:17.110Z,74.30
2019-03-18T15:41:47.115Z,74.50
2019-03-18T15:44:17.871Z,74.40
2019-03-18T15:46:47.599Z,74.33
2019-03-18T15:49:17.599Z,74.67
2019-03-18T15:51:47.338Z,74.87
2019-03-18T15:54:18.148Z,75.47
2019-03-18T15:56:47.882Z,74.97
2019-03-18T15:59:17.559Z,75.43
2019-03-18T16:01:47.302Z,74.80
2019-03-18T16:04:17.805Z,74.50
2019-03-18T16:06:47.549Z,75.33
2019-03-18T16:09:17.337Z,74.83
2019-03-18T16:11:47.168Z,74.33
2019-03-18T16:14:19.673Z,75.20
2019-03-18T16:17:01.245Z,74.43
2019-03-18T16:19:20.870Z,74.60
2019-03-18T16:21:51.414Z,74.17
2019-03-18T16:24:21.555Z,74.57
2019-03-18T16:26:52.285Z,74.20
2019-03-18T16:29:23.115Z,74.23
2019-03-18T16:31:53.172Z,74.67
2019-03-18T16:34:23.105Z,75.60
2019-03-18T16:36:52.792Z,74.13
2019-03-18T16:39:23.524Z,75.07
2019-03-18T16:41:54.330Z,73.67
2019-03-18T16:44:24.214Z,73.63
2019-03-18T16:46:54.146Z,73.73
2019-03-18T16:49:24.249Z,73.47
2019-03-18T16:51:54.990Z,72.80
2019-03-18T16:54:25.650Z,73.57
2019-03-18T16:56:55.353Z,73.73
2019-03-18T16:59:25.050Z,72.93
2019-03-18T17:01:55.604Z,74.37
2019-03-18T17:04:25.334Z,73.07
2019-03-18T17:06:55.020Z,73.03
2019-03-18T17:09:25.278Z,73.03
2019-03-18T17:11:55.380Z,71.67
2019-03-18T17:14:25.179Z,73.40
2019-03-18T17:16:54.869Z,72.37
2019-03-18T17:19:24.929Z,71.90
2019-03-18T17:21:54.646Z,71.97
2019-03-18T17:24:24.709Z,72.17
2019-03-18T17:26:54.813Z,72.43
2019-03-18T17:29:24.869Z,72.77
2019-03-18T17:31:54.556Z,71.77
2019-03-18T17:34:24.274Z,71.40
2019-03-18T17:36:54.033Z,71.40
2019-03-18T17:39:24.011Z,71.30
2019-03-18T17:41:53.972Z,73.13
2019-03-18T17:44:23.684Z,72.33
2019-03-18T17:46:54.386Z,72.90
2019-03-18T17:49:24.629Z,73.87
2019-03-18T17:51:55.878Z,72.63
2019-03-18T17:54:25.622Z,72.87
2019-03-18T17:57:06.706Z,72.03
2019-03-18T17:59:26.798Z,71.30
2019-03-18T18:01:56.497Z,71.67
2019-03-18T18:04:26.274Z,71.87
2019-03-18T18:06:56.094Z,72.70
2019-03-18T18:09:26.885Z,73.20
2019-03-18T18:11:56.642Z,73.93
2019-03-18T18:14:26.490Z,73.57
2019-03-18T18:16:56.262Z,73.67
2019-03-18T18:19:26.240Z,71.67
2019-03-18T18:21:55.991Z,72.57
2019-03-18T18:24:25.692Z,72.37
2019-03-18T18:26:55.388Z,72.70
2019-03-18T18:29:25.746Z,72.13
2019-03-18T18:31:56.608Z,73.20
2019-03-18T18:34:26.303Z,73.03
2019-03-18T18:36:57.551Z,72.57
2019-03-18T18:39:27.245Z,73.63
2019-03-18T18:41:56.908Z,71.17
2019-03-18T18:44:26.610Z,72.07
2019-03-18T18:46:56.411Z,72.37
2019-03-18T18:49:26.145Z,72.00
2019-03-18T18:51:56.064Z,72.13
2019-03-18T18:54:25.746Z,72.63
2019-03-18T18:56:55.811Z,73.03
2019-03-18T18:59:25.555Z,71.40
2019-03-18T19:01:55.367Z,70.77
2019-03-18T19:04:25.124Z,70.20
2019-03-18T19:06:54.889Z,70.87
2019-03-18T19:09:25.899Z,71.37
2019-03-18T19:11:55.607Z,72.10
2019-03-18T19:14:25.472Z,71.20
2019-03-18T19:16:55.184Z,70.07
2019-03-18T19:19:24.938Z,69.93
2019-03-18T19:21:54.726Z,69.97
2019-03-18T19:24:24.577Z,69.13
2019-03-18T19:26:54.620Z,71.00
2019-03-18T19:29:24.368Z,69.93
2019-03-18T19:31:54.326Z,70.53
2019-03-18T19:34:24.274Z,70.67
2019-03-18T19:36:54.123Z,70.97
2019-03-18T19:39:23.929Z,70.90
2019-03-18T19:41:54.959Z,70.20
2019-03-18T19:44:24.727Z,70.40
2019-03-18T19:46:54.417Z,71.10
2019-03-18T19:49:24.313Z,70.00
2019-03-18T19:51:54.005Z,72.20
2019-03-18T19:54:23.894Z,70.07
2019-03-18T19:56:53.656Z,72.10
2019-03-18T19:59:23.483Z,71.50
2019-03-18T20:01:53.236Z,71.50
2019-03-18T20:04:23.064Z,73.30
2019-03-18T20:06:52.743Z,70.03
2019-03-18T20:09:22.522Z,69.87
2019-03-18T20:11:52.365Z,70.83
2019-03-18T20:14:22.121Z,70.23
2019-03-18T20:16:52.765Z,68.87
2019-03-18T20:19:22.469Z,68.63
2019-03-18T20:21:52.232Z,68.37
2019-03-18T20:24:21.996Z,68.70
2019-03-18T20:26:51.689Z,68.97
2019-03-18T20:29:21.485Z,69.30
2019-03-18T20:31:51.247Z,67.90
2019-03-18T20:34:21.533Z,69.33
2019-03-18T20:36:51.416Z,69.03
2019-03-18T20:39:21.274Z,69.77
2019-03-18T20:41:50.963Z,69.80
2019-03-18T20:44:20.692Z,69.13
2019-03-18T20:46:50.396Z,69.20
2019-03-18T20:49:20.234Z,68.90
2019-03-18T20:51:50.178Z,70.53
2019-03-18T20:54:19.877Z,70.40
2019-03-18T20:56:49.598Z,71.03
2019-03-18T20:59:19.339Z,71.33
2019-03-18T21:01:49.074Z,71.30
2019-03-18T21:04:18.857Z,73.07
2019-03-18T21:06:48.704Z,73.63
2019-03-18T21:09:18.408Z,72.20
2019-03-18T21:11:48.146Z,68.53
2019-03-18T21:14:17.849Z,68.73
2019-03-18T21:16:47.513Z,68.57
2019-03-18T21:19:17.232Z,68.43
2019-03-18T21:21:46.912Z,67.53
2019-03-18T21:24:23.147Z,66.63
2019-03-18T21:26:48.081Z,67.37
2019-03-18T21:29:17.798Z,69.33
2019-03-18T21:31:47.494Z,71.43
2019-03-18T21:34:17.210Z,71.77
2019-03-18T21:36:46.905Z,72.27
2019-03-18T21:39:18.083Z,72.30
2019-03-18T21:41:48.309Z,71.13
2019-03-18T21:44:18.160Z,70.37
2019-03-18T21:46:48.898Z,71.17
2019-03-18T21:49:18.754Z,71.00
2019-03-18T21:51:48.441Z,71.43
2019-03-18T21:54:18.163Z,71.67
2019-03-18T21:56:47.925Z,71.20
2019-03-18T21:59:17.585Z,71.73
2019-03-18T22:01:47.307Z,71.40
2019-03-18T22:04:17.105Z,71.30
2019-03-18T22:06:46.804Z,71.53
2019-03-18T22:09:16.483Z,71.50
2019-03-18T22:11:46.371Z,70.33
2019-03-18T22:14:15.985Z,70.47
2019-03-18T22:16:45.794Z,71.10
2019-03-18T22:19:15.867Z,70.23
2019-03-18T22:21:45.663Z,69.53
2019-03-18T22:24:15.340Z,69.37
2019-03-18T22:26:45.033Z,69.20
2019-03-18T22:29:14.770Z,70.63
2019-03-18T22:31:44.618Z,67.50
2019-03-18T22:34:14.417Z,68.37
2019-03-18T22:36:44.113Z,69.23
2019-03-18T22:39:13.767Z,68.47
2019-03-18T22:41:43.551Z,67.47
2019-03-18T22:44:13.230Z,66.33
2019-03-18T22:46:43.177Z,66.90
2019-03-18T22:49:12.954Z,66.87
2019-03-18T22:51:42.671Z,66.00
2019-03-18T22:54:12.418Z,66.10
2019-03-18T22:56:42.171Z,66.67
2019-03-18T22:59:11.923Z,66.00
2019-03-18T23:01:41.744Z,65.70
2019-03-18T23:04:11.410Z,66.13
2019-03-18T23:06:41.167Z,65.47
2019-03-18T23:09:10.917Z,64.47
2019-03-18T23:11:40.727Z,61.33
2019-03-18T23:14:10.655Z,61.77
2019-03-18T23:16:40.336Z,62.70
2019-03-18T23:19:10.977Z,60.83
2019-03-18T23:21:40.731Z,62.33
2019-03-18T23:24:12.413Z,61.77
2019-03-18T23:26:42.622Z,60.90
2019-03-18T23:29:13.193Z,61.90
2019-03-18T23:31:43.086Z,63.37
2019-03-18T23:34:14.399Z,63.00
2019-03-18T23:36:44.312Z,63.60
2019-03-18T23:39:14.137Z,63.47
2019-03-18T23:41:43.996Z,62.17
2019-03-18T23:44:14.395Z,63.77
2019-03-18T23:46:46.790Z,65.80
2019-03-18T23:49:16.523Z,65.13
2019-03-18T23:51:46.312Z,64.10
2019-03-18T23:54:16.085Z,64.00
2019-03-18T23:56:46.084Z,62.10
2019-03-18T23:59:15.873Z,61.13
